Time;durP1;ratioP1;P1;durP2;ratioP2;P2;SDS_P1;SDS_P2;PMS_P1;PMS_P2;Temp;Humidity;BMP_temperature;BMP_pressure;BME280_temperature;BME280_humidity;BME280_pressure;Samples;Min_cycle;Max_cycle;Signal;HPM_P1;HPM_P2
2022/07/20 00:01:25;;;;;;;6.95;3.55;;;;;;;27.60;35.54;100393.56;5073558;28;20235;-64
2022/07/20 00:03:53;;;;;;;10.88;3.83;;;;;;;27.57;35.30;100394.06;5091730;28;20230;-64
2022/07/20 00:06:20;;;;;;;7.40;3.63;;;;;;;27.53;35.67;100395.66;5079565;28;20212;-65
2022/07/20 00:11:35;;;;;;;11.18;4.35;;;;;;;27.51;35.86;100397.81;5079033;28;20283;-64
2022/07/20 00:14:04;;;;;;;9.18;4.28;;;;;;;27.48;35.83;100399.16;5070056;28;20261;-64
2022/07/20 00:16:35;;;;;;;13.77;4.15;;;;;;;27.44;36.08;100391.78;5072313;28;20227;-64
2022/07/20 00:19:04;;;;;;;12.10;4.18;;;;;;;27.42;36.23;100393.94;5072008;28;20230;-64
2022/07/20 00:21:32;;;;;;;8.00;4.03;;;;;;;27.40;36.14;100391.47;5070891;28;20207;-64
2022/07/20 00:24:01;;;;;;;9.85;3.97;;;;;;;27.42;36.08;100388.50;5071581;28;20728;-65
2022/07/20 00:26:29;;;;;;;12.65;4.28;;;;;;;27.39;36.14;100387.09;5072135;28;20207;-65
2022/07/20 00:28:57;;;;;;;7.65;3.33;;;;;;;27.38;36.19;100388.19;5070895;28;20234;-65
2022/07/20 00:31:24;;;;;;;7.85;3.60;;;;;;;27.31;36.13;100388.41;5065797;28;20207;-65
2022/07/20 00:33:52;;;;;;;9.02;3.90;;;;;;;27.25;36.53;100386.75;5068865;28;20223;-65
2022/07/20 00:36:20;;;;;;;8.43;3.92;;;;;;;27.23;36.41;100383.44;5071665;28;20227;-64
2022/07/20 00:38:48;;;;;;;8.07;3.72;;;;;;;27.21;36.47;100382.88;5071827;28;20242;-64
2022/07/20 00:41:18;;;;;;;13.20;4.60;;;;;;;27.19;36.50;100385.03;5071465;28;20207;-64
2022/07/20 00:44:01;;;;;;;7.03;3.85;;;;;;;27.15;36.35;100383.94;5071336;28;20200;-65
2022/07/20 00:46:32;;;;;;;9.98;4.00;;;;;;;27.12;36.34;100383.63;5067444;28;20204;-64
2022/07/20 00:49:00;;;;;;;10.70;4.20;;;;;;;27.06;36.60;100392.81;5062721;28;20207;-65
2022/07/20 00:51:28;;;;;;;7.93;3.67;;;;;;;26.99;36.78;100390.31;5071660;28;20211;-65
2022/07/20 00:53:56;;;;;;;7.85;3.45;;;;;;;26.98;36.57;100388.69;5060211;28;20214;-64
2022/07/20 00:56:25;;;;;;;9.75;4.03;;;;;;;26.99;36.87;100379.44;5071409;28;20611;-65
2022/07/20 00:58:53;;;;;;;8.55;4.22;;;;;;;26.94;36.88;100373.94;5071489;28;20207;-65
2022/07/20 01:01:21;;;;;;;13.85;3.58;;;;;;;26.86;36.87;100379.81;5071359;28;20211;-64
2022/07/20 01:03:49;;;;;;;12.70;3.88;;;;;;;26.89;36.67;100387.47;5070631;28;20204;-64
2022/07/20 01:06:17;;;;;;;10.32;4.00;;;;;;;26.91;36.34;100383.41;5071088;28;20211;-65
2022/07/20 01:08:48;;;;;;;6.90;4.07;;;;;;;26.92;36.25;100382.34;5071106;28;20210;-65
2022/07/20 01:11:16;;;;;;;11.02;3.80;;;;;;;26.90;36.44;100380.94;5071556;28;20233;-65
2022/07/20 01:13:45;;;;;;;7.95;3.95;;;;;;;26.90;36.27;100383.66;5070603;28;20637;-64
2022/07/20 01:16:13;;;;;;;10.15;3.70;;;;;;;26.89;36.62;100379.31;5070930;28;20243;-65
2022/07/20 01:18:41;;;;;;;6.07;3.75;;;;;;;26.82;36.83;100376.81;5070849;28;20207;-65
2022/07/20 01:21:10;;;;;;;8.55;3.60;;;;;;;26.71;36.99;100369.59;5052134;28;20212;-65
2022/07/20 01:23:38;;;;;;;8.30;3.55;;;;;;;26.66;36.94;100369.53;5065505;28;20775;-64
2022/07/20 01:26:06;;;;;;;7.60;3.65;;;;;;;26.70;36.90;100364.41;5070968;28;20196;-64
2022/07/20 01:28:33;;;;;;;16.80;4.43;;;;;;;26.70;36.90;100369.84;5070559;28;20245;-64
2022/07/20 01:31:01;;;;;;;8.85;3.80;;;;;;;26.72;36.86;100370.44;5070902;28;20739;-64
2022/07/20 01:33:29;;;;;;;9.20;3.65;;;;;;;26.72;36.96;100368.53;5069837;28;20227;-64
2022/07/20 01:35:57;;;;;;;7.43;4.03;;;;;;;26.75;36.95;100368.00;5070673;28;20223;-64
2022/07/20 01:38:26;;;;;;;6.82;3.40;;;;;;;26.73;37.15;100363.91;5070888;28;20203;-64
2022/07/20 01:40:54;;;;;;;7.03;3.65;;;;;;;26.72;37.12;100370.44;5070403;28;20219;-64
2022/07/20 01:43:22;;;;;;;7.95;3.50;;;;;;;26.67;37.26;100373.91;5070078;28;20655;-64
2022/07/20 01:45:49;;;;;;;9.15;3.83;;;;;;;26.62;37.30;100370.31;5070475;28;20662;-64
2022/07/20 01:48:17;;;;;;;8.25;3.90;;;;;;;26.58;37.58;100378.97;5070058;28;20211;-64
2022/07/20 01:50:45;;;;;;;11.48;3.45;;;;;;;26.57;37.55;100377.34;5070269;28;20206;-65
2022/07/20 01:53:13;;;;;;;11.20;3.70;;;;;;;26.53;37.75;100376.22;5069861;28;20222;-65
2022/07/20 01:55:42;;;;;;;12.00;4.00;;;;;;;26.53;38.22;100380.84;5069747;28;20233;-64
2022/07/20 01:58:10;;;;;;;14.68;4.28;;;;;;;26.48;38.45;100380.75;5068543;28;20306;-64
2022/07/20 02:00:38;;;;;;;10.13;4.10;;;;;;;26.44;38.71;100383.19;5070489;28;20302;-64
2022/07/20 02:03:05;;;;;;;8.20;4.10;;;;;;;26.38;38.76;100377.94;5069768;28;20214;-64
2022/07/20 02:05:34;;;;;;;7.50;4.30;;;;;;;26.36;39.02;100372.75;5070581;28;20199;-64
2022/07/20 02:08:01;;;;;;;15.05;4.28;;;;;;;26.35;39.02;100378.44;5070699;28;20318;-64
2022/07/20 02:10:29;;;;;;;7.63;4.32;;;;;;;26.32;38.99;100374.31;5070646;28;20215;-64
2022/07/20 02:12:58;;;;;;;8.07;4.25;;;;;;;26.24;39.43;100394.59;5069207;28;20683;-64
2022/07/20 02:18:13;;;;;;;10.43;4.10;;;;;;;26.17;39.90;100387.72;5070427;28;20700;-64
2022/07/20 02:20:42;;;;;;;7.53;4.57;;;;;;;26.14;40.24;100390.91;5060000;28;20613;-64
2022/07/20 02:23:12;;;;;;;9.63;3.55;;;;;;;26.12;40.38;100395.81;5069509;28;20210;-64
2022/07/20 02:25:40;;;;;;;7.70;4.22;;;;;;;26.14;40.38;100390.91;5070212;28;20552;-64
2022/07/20 02:28:09;;;;;;;8.98;4.22;;;;;;;26.10;40.27;100396.06;5069990;28;20767;-64
2022/07/20 02:30:40;;;;;;;9.15;4.25;;;;;;;26.04;40.35;100393.50;5069673;28;20219;-64
2022/07/20 02:33:08;;;;;;;10.15;4.32;;;;;;;25.99;39.91;100391.56;5061510;28;20228;-64
2022/07/20 02:35:36;;;;;;;11.50;3.90;;;;;;;26.01;39.77;100388.59;5070215;28;20215;-64
2022/07/20 02:38:03;;;;;;;13.02;4.35;;;;;;;25.97;39.17;100398.31;5077736;28;20207;-64
2022/07/20 02:40:31;;;;;;;9.23;4.38;;;;;;;25.94;39.00;100394.22;5070074;28;20219;-65
2022/07/20 02:42:59;;;;;;;9.30;3.92;;;;;;;25.91;38.86;100397.41;5069815;28;20661;-64
2022/07/20 02:45:28;;;;;;;7.32;3.78;;;;;;;25.94;38.60;100387.97;5070171;28;20294;-64
2022/07/20 02:48:02;;;;;;;13.50;4.25;;;;;;;25.86;38.60;100387.28;5069780;28;20700;-65
2022/07/20 02:50:30;;;;;;;6.65;3.22;;;;;;;25.91;38.55;100388.44;5069854;28;20257;-64
2022/07/20 02:52:58;;;;;;;8.20;3.30;;;;;;;25.88;38.67;100387.03;5069395;28;20250;-64
2022/07/20 02:55:26;;;;;;;8.40;4.38;;;;;;;25.89;38.74;100385.16;5069690;28;20203;-65
2022/07/20 02:57:53;;;;;;;10.82;4.07;;;;;;;25.89;38.60;100385.16;5069955;28;20223;-64
2022/07/20 03:00:22;;;;;;;11.95;4.13;;;;;;;25.83;38.50;100387.00;5070018;28;20732;-64
2022/07/20 03:02:51;;;;;;;12.68;3.50;;;;;;;25.76;38.85;100381.75;5068805;28;20219;-65
2022/07/20 03:05:19;;;;;;;8.38;3.97;;;;;;;25.74;38.97;100383.06;5070258;28;20601;-64
2022/07/20 03:07:47;;;;;;;12.43;3.70;;;;;;;25.78;38.95;100382.28;5069651;28;20218;-65
2022/07/20 03:10:15;;;;;;;7.50;4.13;;;;;;;25.74;39.08;100386.59;5070540;28;20246;-64
2022/07/20 03:12:43;;;;;;;10.48;4.00;;;;;;;25.72;39.09;100380.59;5072962;28;20561;-64
2022/07/20 03:15:12;;;;;;;6.88;3.90;;;;;;;25.69;39.12;100386.50;5073059;28;20215;-64
2022/07/20 03:17:44;;;;;;;7.38;3.55;;;;;;;25.69;39.52;100385.69;5073224;28;20470;-64
2022/07/20 03:20:15;;;;;;;9.27;3.90;;;;;;;25.62;39.62;100393.19;5072479;28;20696;-64
2022/07/20 03:22:43;;;;;;;9.73;3.95;;;;;;;25.58;39.59;100387.41;5060602;28;20206;-64
2022/07/20 03:25:11;;;;;;;9.70;3.70;;;;;;;25.60;39.68;100388.00;5073494;28;20211;-64
2022/07/20 03:27:39;;;;;;;10.07;4.22;;;;;;;25.62;39.67;100394.00;5072408;28;20253;-64
2022/07/20 03:30:08;;;;;;;11.30;4.10;;;;;;;25.61;39.75;100392.34;5073729;28;20606;-64
2022/07/20 03:32:36;;;;;;;6.50;3.55;;;;;;;25.60;39.78;100396.13;5072470;28;20294;-64
2022/07/20 03:35:04;;;;;;;8.73;3.90;;;;;;;25.58;39.93;100401.00;5073085;28;20210;-64
2022/07/20 03:37:33;;;;;;;10.05;4.00;;;;;;;25.55;39.80;100404.19;5072424;28;20834;-64
2022/07/20 03:40:03;;;;;;;10.73;3.90;;;;;;;25.57;39.65;100402.06;5073147;28;20732;-65
2022/07/20 03:42:31;;;;;;;10.15;3.97;;;;;;;25.54;39.85;100404.44;5072597;28;20754;-65
2022/07/20 03:44:59;;;;;;;7.40;4.05;;;;;;;25.53;39.64;100405.50;5072930;28;20207;-64
2022/07/20 03:47:28;;;;;;;8.20;4.15;;;;;;;25.56;39.39;100402.28;5073800;28;20206;-64
2022/07/20 03:49:56;;;;;;;11.27;4.50;;;;;;;25.56;39.48;100408.56;5072985;28;20701;-64
2022/07/20 03:52:24;;;;;;;7.40;3.90;;;;;;;25.51;39.23;100405.75;5072666;28;20211;-64
2022/07/20 03:54:54;;;;;;;11.20;4.18;;;;;;;25.50;39.02;100417.69;5070478;28;20212;-64
2022/07/20 03:57:23;;;;;;;8.77;4.03;;;;;;;25.49;39.04;100407.91;5072630;28;20290;-64
2022/07/20 03:59:50;;;;;;;10.65;3.60;;;;;;;25.49;39.16;100419.59;5072232;28;20203;-64
2022/07/20 04:02:18;;;;;;;11.40;3.92;;;;;;;25.53;39.17;100419.06;5072192;28;20219;-64
2022/07/20 04:04:47;;;;;;;13.18;4.05;;;;;;;25.53;39.19;100409.03;5072565;28;20679;-64
2022/07/20 04:07:16;;;;;;;11.20;4.25;;;;;;;25.56;39.39;100413.16;5072578;28;20199;-65
2022/07/20 04:09:47;;;;;;;10.68;4.57;;;;;;;25.54;39.12;100416.13;5072094;28;20207;-63
2022/07/20 04:12:18;;;;;;;8.77;3.65;;;;;;;25.54;38.96;100421.53;5071564;28;20211;-64
2022/07/20 04:14:49;;;;;;;9.88;4.05;;;;;;;25.54;39.08;100415.28;5072201;28;21079;-64
2022/07/20 04:17:18;;;;;;;13.20;4.80;;;;;;;25.57;38.71;100414.81;5072594;28;20231;-64
2022/07/20 04:19:46;;;;;;;6.78;4.45;;;;;;;25.59;38.84;100424.38;5064379;28;20291;-64
2022/07/20 04:22:14;;;;;;;12.18;4.25;;;;;;;25.59;38.66;100418.09;5057239;28;20253;-64
2022/07/20 04:24:42;;;;;;;14.25;4.70;;;;;;;25.60;38.76;100420.56;5072420;28;20294;-64
2022/07/20 04:27:10;;;;;;;8.27;4.20;;;;;;;25.56;38.78;100418.59;5071934;28;20549;-64
2022/07/20 04:29:39;;;;;;;13.00;5.15;;;;;;;25.57;38.85;100423.78;5072590;28;20219;-64
2022/07/20 04:32:08;;;;;;;14.00;4.53;;;;;;;25.60;38.75;100426.00;5072503;28;20993;-64
2022/07/20 04:34:35;;;;;;;11.65;4.88;;;;;;;25.65;38.90;100422.56;5071772;28;20208;-64
2022/07/20 04:37:07;;;;;;;10.70;4.60;;;;;;;25.65;38.51;100423.38;5066520;28;20664;-64
2022/07/20 04:39:35;;;;;;;10.77;3.67;;;;;;;25.65;38.61;100420.66;5071446;28;20204;-64
2022/07/20 04:42:03;;;;;;;8.20;4.13;;;;;;;25.66;38.61;100421.50;5071934;28;20233;-64
2022/07/20 04:44:31;;;;;;;12.05;4.40;;;;;;;25.70;38.77;100426.16;5071594;28;20564;-64
2022/07/20 04:47:00;;;;;;;11.48;4.60;;;;;;;25.71;38.75;100424.28;5071340;28;20203;-64
2022/07/20 04:49:28;;;;;;;8.00;4.30;;;;;;;25.70;39.18;100426.16;5071843;28;20206;-64
2022/07/20 04:51:56;;;;;;;7.47;3.88;;;;;;;25.72;39.18;100429.47;5071679;28;20230;-64
2022/07/20 04:54:24;;;;;;;11.27;4.70;;;;;;;25.77;39.41;100417.88;5071123;28;20234;-65
2022/07/20 04:56:52;;;;;;;10.27;4.35;;;;;;;25.80;39.44;100417.34;5071583;28;20699;-65
2022/07/20 04:59:20;;;;;;;11.60;4.70;;;;;;;25.82;39.48;100421.47;5072352;28;20210;-65
2022/07/20 05:01:49;;;;;;;10.30;4.45;;;;;;;25.84;39.25;100416.63;5071366;28;20231;-65
2022/07/20 05:04:18;;;;;;;8.57;4.78;;;;;;;25.86;39.54;100425.31;5071167;28;20211;-64
2022/07/20 05:06:46;;;;;;;13.57;4.65;;;;;;;25.90;39.50;100430.25;5071783;28;20207;-64
2022/07/20 05:09:15;;;;;;;10.80;4.90;;;;;;;25.90;39.53;100435.69;5071400;28;20214;-64
2022/07/20 05:11:42;;;;;;;10.25;5.10;;;;;;;25.94;39.76;100434.13;5071002;28;20207;-65
2022/07/20 05:14:10;;;;;;;12.60;5.50;;;;;;;25.98;39.76;100436.09;5069636;28;20210;-65
2022/07/20 05:16:39;;;;;;;13.38;5.80;;;;;;;25.99;40.17;100439.63;5071447;28;20199;-65
2022/07/20 05:19:07;;;;;;;15.68;5.05;;;;;;;26.00;40.07;100447.53;5070948;28;20246;-65
2022/07/20 05:21:42;;;;;;;12.77;4.65;;;;;;;26.02;40.24;100448.13;5058573;28;20661;-65
2022/07/20 05:24:09;;;;;;;13.60;5.57;;;;;;;26.01;40.67;100442.94;5069668;28;20210;-65
2022/07/20 05:26:37;;;;;;;12.80;5.30;;;;;;;26.00;40.73;100446.72;5071642;28;20827;-65
2022/07/20 05:29:05;;;;;;;11.15;5.10;;;;;;;26.01;41.38;100442.94;5074118;28;20242;-65
2022/07/20 05:31:33;;;;;;;12.55;4.78;;;;;;;25.98;42.51;100448.84;5081429;28;20342;-65
2022/07/20 05:34:01;;;;;;;9.25;4.55;;;;;;;25.97;42.71;100448.03;5069327;28;20314;-65
2022/07/20 05:36:28;;;;;;;10.20;5.97;;;;;;;26.03;42.06;100451.66;5070814;28;20286;-65
2022/07/20 05:38:58;;;;;;;13.05;5.28;;;;;;;26.07;41.38;100453.63;5070442;28;20334;-65
2022/07/20 05:41:26;;;;;;;20.08;5.80;;;;;;;26.12;41.00;100453.66;5070395;28;20261;-65
2022/07/20 05:43:54;;;;;;;12.15;6.32;;;;;;;26.19;40.54;100461.66;5069641;28;20301;-65
2022/07/20 05:46:22;;;;;;;15.05;6.55;;;;;;;26.27;40.04;100458.53;5070316;28;20211;-64
2022/07/20 05:48:50;;;;;;;18.00;6.18;;;;;;;26.30;39.88;100463.47;5070574;28;20203;-64
2022/07/20 05:51:18;;;;;;;14.23;5.75;;;;;;;26.35;40.09;100460.81;5070307;28;20242;-65
2022/07/20 05:53:59;;;;;;;13.30;5.80;;;;;;;26.39;40.41;100456.50;5069974;28;20656;-65
2022/07/20 05:56:27;;;;;;;14.13;5.05;;;;;;;26.43;40.22;100449.50;5069814;28;20207;-63
2022/07/20 05:58:55;;;;;;;12.80;4.80;;;;;;;26.50;39.93;100452.03;5070442;28;20223;-64
2022/07/20 06:01:23;;;;;;;10.70;5.88;;;;;;;26.57;39.67;100463.53;5070389;28;20243;-64
2022/07/20 06:03:51;;;;;;;12.93;5.82;;;;;;;26.63;38.98;100459.81;5070058;28;20211;-65
2022/07/20 06:06:18;;;;;;;14.93;6.40;;;;;;;26.68;38.69;100465.31;5069422;28;20212;-66
2022/07/20 06:08:46;;;;;;;11.27;5.80;;;;;;;26.73;38.50;100456.41;5069986;28;20298;-64
2022/07/20 06:11:36;;;;;;;9.57;5.03;;;;;;;26.79;37.91;100456.19;5069685;28;20602;-66
2022/07/20 06:14:04;;;;;;;12.00;4.30;;;;;;;26.82;37.49;100461.13;5069660;28;20286;-65
2022/07/20 06:16:31;;;;;;;12.02;6.35;;;;;;;26.88;37.12;100470.16;5070053;28;20302;-65
2022/07/20 06:18:59;;;;;;;12.43;4.65;;;;;;;26.96;37.22;100472.44;5068185;28;20684;-65
2022/07/20 06:21:27;;;;;;;13.43;5.13;;;;;;;27.00;37.60;100467.34;5063601;28;20226;-64
2022/07/20 06:23:55;;;;;;;17.83;5.60;;;;;;;27.04;37.46;100480.16;5069663;28;20319;-65
2022/07/20 06:26:23;;;;;;;13.10;6.32;;;;;;;27.11;37.26;100479.94;5070608;28;20289;-64
2022/07/20 06:28:52;;;;;;;9.95;5.82;;;;;;;27.11;37.40;100471.78;5071024;28;20269;-65
2022/07/20 06:31:20;;;;;;;9.48;5.07;;;;;;;27.16;37.50;100469.94;5081932;28;20207;-65
2022/07/20 06:34:04;;;;;;;10.60;5.25;;;;;;;27.22;37.66;100471.63;5068812;28;20330;-65
2022/07/20 06:36:32;;;;;;;13.90;4.75;;;;;;;27.29;37.55;100474.97;5070242;28;20265;-65
2022/07/20 06:39:00;;;;;;;20.40;4.97;;;;;;;27.37;36.76;100470.13;5069286;28;20270;-65
2022/07/20 06:41:27;;;;;;;17.52;4.97;;;;;;;27.38;36.19;100469.03;5069849;28;20218;-65
2022/07/20 06:43:57;;;;;;;15.05;5.13;;;;;;;27.42;36.42;100467.47;5069834;28;20518;-64
2022/07/20 06:46:24;;;;;;;8.98;4.93;;;;;;;27.46;36.25;100471.28;5074508;28;20203;-65
2022/07/20 06:48:52;;;;;;;8.80;5.03;;;;;;;27.50;36.50;100466.97;5074167;28;20217;-65
2022/07/20 06:51:20;;;;;;;8.20;4.40;;;;;;;27.55;36.71;100465.16;5073878;28;20230;-65
2022/07/20 06:53:48;;;;;;;15.43;5.80;;;;;;;27.62;36.58;100473.09;5073297;28;20252;-66
2022/07/20 06:56:17;;;;;;;16.15;5.32;;;;;;;27.65;36.52;100475.31;5073846;28;20275;-64
2022/07/20 06:58:45;;;;;;;15.25;4.88;;;;;;;27.70;36.47;100469.91;5073985;28;20342;-64
2022/07/20 07:01:14;;;;;;;13.95;5.30;;;;;;;27.75;36.20;100474.56;5074097;28;20644;-65
2022/07/20 07:03:42;;;;;;;12.50;5.07;;;;;;;27.81;36.40;100468.06;5073109;28;20215;-65
2022/07/20 07:06:10;;;;;;;15.75;5.38;;;;;;;27.87;36.03;100472.47;5074159;28;20207;-65
2022/07/20 07:08:38;;;;;;;10.75;4.50;;;;;;;27.92;35.92;100478.78;5074229;28;20196;-64
2022/07/20 07:11:05;;;;;;;13.98;4.55;;;;;;;27.99;36.14;100481.25;5073953;28;20736;-65
2022/07/20 07:13:33;;;;;;;15.57;4.63;;;;;;;28.05;36.00;100478.34;5059188;28;20199;-65
2022/07/20 07:16:01;;;;;;;11.15;4.75;;;;;;;28.09;35.97;100479.44;5073247;28;20207;-65
2022/07/20 07:18:30;;;;;;;13.48;5.18;;;;;;;28.16;35.88;100481.09;5073245;28;20227;-65
2022/07/20 07:20:58;;;;;;;10.25;4.05;;;;;;;28.27;35.82;100477.38;5066067;28;20250;-65
2022/07/20 07:23:25;;;;;;;6.95;3.85;;;;;;;28.28;36.08;100485.31;5066071;28;20209;-65
2022/07/20 07:25:53;;;;;;;12.13;4.45;;;;;;;28.40;35.58;100480.47;5073648;28;20298;-64
2022/07/20 07:28:21;;;;;;;9.02;4.47;;;;;;;28.40;35.80;100482.38;5072996;28;20350;-64
2022/07/20 07:30:50;;;;;;;15.10;4.97;;;;;;;28.38;35.56;100481.81;5073279;28;20269;-64
2022/07/20 07:33:19;;;;;;;7.95;4.40;;;;;;;28.38;35.45;100484.53;5072758;28;20417;-65
2022/07/20 07:35:48;;;;;;;12.32;4.43;;;;;;;28.40;35.47;100477.75;5072409;28;20648;-64
2022/07/20 07:38:16;;;;;;;10.40;4.60;;;;;;;28.43;35.56;100482.66;5072826;28;20302;-64
2022/07/20 07:40:44;;;;;;;15.90;4.45;;;;;;;28.44;35.64;100478.00;5073399;28;20864;-65
2022/07/20 07:43:11;;;;;;;7.35;4.68;;;;;;;28.55;35.17;100485.16;5072464;28;20294;-64
2022/07/20 07:45:39;;;;;;;14.35;5.10;;;;;;;28.61;35.12;100478.63;5073070;28;20238;-64
2022/07/20 07:48:10;;;;;;;14.32;4.68;;;;;;;28.68;35.30;100479.19;5072789;28;20211;-65
2022/07/20 07:50:38;;;;;;;15.40;4.45;;;;;;;28.73;35.37;100481.97;5072634;28;20211;-65
2022/07/20 07:53:08;;;;;;;17.15;4.88;;;;;;;28.75;35.52;100479.78;5072468;28;20302;-64
2022/07/20 07:55:37;;;;;;;13.07;4.82;;;;;;;28.86;35.79;100474.38;5072870;28;20310;-66
2022/07/20 07:58:11;;;;;;;14.82;5.35;;;;;;;28.91;35.94;100477.13;5073323;28;20657;-65
2022/07/20 08:00:43;;;;;;;12.98;5.10;;;;;;;28.93;35.74;100475.78;5073397;28;20255;-66
2022/07/20 08:03:11;;;;;;;15.15;4.82;;;;;;;29.00;36.01;100478.25;5072557;28;20215;-65
2022/07/20 08:05:39;;;;;;;18.73;6.68;;;;;;;29.07;35.92;100473.34;5073333;28;20667;-65
2022/07/20 08:08:10;;;;;;;16.30;5.20;;;;;;;29.23;35.85;100477.72;5092577;28;20209;-65
2022/07/20 08:10:39;;;;;;;12.40;5.55;;;;;;;29.38;35.68;100477.78;5089644;28;20280;-64
2022/07/20 08:13:07;;;;;;;11.95;4.75;;;;;;;29.55;35.04;100478.31;5092417;28;20301;-64
2022/07/20 08:15:37;;;;;;;19.25;4.32;;;;;;;29.53;35.55;100475.06;5092414;28;20206;-64
2022/07/20 08:18:06;;;;;;;9.80;4.85;;;;;;;29.50;35.78;100475.59;5092899;28;20852;-64
2022/07/20 08:20:34;;;;;;;16.25;4.93;;;;;;;29.62;35.30;100478.06;5081188;28;20305;-65
2022/07/20 08:23:02;;;;;;;16.48;5.22;;;;;;;29.75;35.17;100476.69;5082402;28;20214;-65
2022/07/20 08:25:32;;;;;;;11.25;4.93;;;;;;;30.00;35.03;100473.94;5092376;28;20659;-65
2022/07/20 08:28:10;;;;;;;14.77;5.38;;;;;;;30.15;34.30;100467.66;5091988;28;20798;-65
2022/07/20 08:30:39;;;;;;;15.70;6.68;;;;;;;30.22;34.60;100471.72;5092910;28;20623;-65
2022/07/20 08:33:21;;;;;;;15.02;5.85;;;;;;;30.42;33.86;100483.69;5091753;28;20616;-64
2022/07/20 08:35:49;;;;;;;11.43;5.40;;;;;;;30.44;34.69;100481.47;5092756;28;20268;-65
2022/07/20 08:38:17;;;;;;;14.32;4.70;;;;;;;30.56;34.18;100485.59;5092641;28;20306;-65
2022/07/20 08:40:46;;;;;;;10.07;4.88;;;;;;;30.72;34.26;100494.53;5092138;28;20318;-64
2022/07/20 08:43:15;;;;;;;16.15;4.68;;;;;;;30.85;34.20;100493.94;5091687;28;20206;-65
2022/07/20 08:45:44;;;;;;;12.95;5.07;;;;;;;30.90;34.12;100495.81;5092362;28;20210;-65
2022/07/20 08:48:18;;;;;;;11.93;5.95;;;;;;;30.98;33.49;100496.03;5092387;28;20198;-65
2022/07/20 08:50:46;;;;;;;14.25;6.28;;;;;;;31.08;33.47;100494.38;5091943;28;20199;-65
2022/07/20 08:53:14;;;;;;;14.05;5.00;;;;;;;31.05;33.48;100499.28;5091322;28;20211;-65
2022/07/20 08:55:42;;;;;;;8.52;5.75;;;;;;;31.10;33.42;100503.13;5092417;28;20206;-64
2022/07/20 08:58:12;;;;;;;13.73;4.90;;;;;;;31.34;33.46;100495.84;5092000;28;20305;-65
2022/07/20 09:00:40;;;;;;;10.02;5.05;;;;;;;31.38;32.79;100510.63;5091882;28;20223;-65
2022/07/20 09:03:10;;;;;;;17.27;6.45;;;;;;;31.40;32.85;100516.66;5091508;28;20211;-65
2022/07/20 09:05:40;;;;;;;15.98;5.55;;;;;;;31.49;32.66;100509.44;5091958;28;20210;-65
2022/07/20 09:08:12;;;;;;;15.68;5.63;;;;;;;31.53;33.03;100510.50;5090716;28;20252;-65
2022/07/20 09:10:42;;;;;;;10.50;5.68;;;;;;;31.61;32.25;100509.88;5082304;28;20207;-65
2022/07/20 09:13:17;;;;;;;11.60;5.30;;;;;;;31.63;32.13;100506.91;5090825;28;20237;-65
2022/07/20 09:15:47;;;;;;;9.40;5.32;;;;;;;31.74;32.64;100497.50;5091760;28;20214;-65
2022/07/20 09:18:17;;;;;;;15.73;5.50;;;;;;;31.86;31.89;100488.88;5091987;28;20207;-65
2022/07/20 09:20:46;;;;;;;12.20;6.13;;;;;;;31.96;31.93;100488.78;5081968;28;20227;-64
2022/07/20 09:23:17;;;;;;;10.98;5.32;;;;;;;32.01;32.08;100489.56;5091288;28;20294;-65
2022/07/20 09:25:57;;;;;;;11.95;6.53;;;;;;;32.13;31.42;100495.44;5091365;28;20290;-64
2022/07/20 09:28:39;;;;;;;11.30;7.13;;;;;;;32.19;31.84;100496.25;5090476;28;20242;-65
2022/07/20 09:31:12;;;;;;;9.55;5.55;;;;;;;32.17;30.52;100492.97;5082929;28;20217;-65
2022/07/20 09:36:34;;;;;;;15.52;6.00;;;;;;;32.34;30.82;100489.78;5080198;28;20207;-64
2022/07/20 09:39:10;;;;;;;12.48;6.85;;;;;;;32.53;30.32;100492.56;5090938;28;20212;-64
2022/07/20 09:41:39;;;;;;;12.30;6.65;;;;;;;32.59;30.19;100496.88;5091282;28;20253;-65
2022/07/20 09:44:11;;;;;;;15.25;6.10;;;;;;;32.62;30.68;100488.88;5090385;28;20208;-65
2022/07/20 09:46:40;;;;;;;10.13;6.47;;;;;;;32.86;29.44;100481.44;5090786;28;20195;-64
2022/07/20 09:49:09;;;;;;;11.48;6.45;;;;;;;32.92;29.67;100484.94;5091065;28;20213;-65
2022/07/20 09:51:44;;;;;;;12.75;6.90;;;;;;;32.99;29.67;100488.13;5091095;28;20323;-65
2022/07/20 09:54:14;;;;;;;12.27;6.15;;;;;;;33.01;29.61;100487.84;5090419;28;20298;-66
2022/07/20 09:56:44;;;;;;;21.38;6.40;;;;;;;33.09;29.72;100489.91;5091110;28;20214;-65
2022/07/20 09:59:14;;;;;;;11.57;6.20;;;;;;;33.12;29.67;100489.31;5091076;28;20812;-64
2022/07/20 10:01:45;;;;;;;9.80;6.78;;;;;;;33.09;29.86;100498.16;5090691;28;20253;-65
2022/07/20 10:04:15;;;;;;;13.57;6.72;;;;;;;33.17;29.52;100495.56;5090276;28;20203;-65
2022/07/20 10:06:46;;;;;;;13.73;6.65;;;;;;;33.25;29.47;100488.59;5090568;28;20302;-64
2022/07/20 10:09:15;;;;;;;14.30;6.45;;;;;;;33.31;29.40;100492.91;5090501;28;20206;-64
2022/07/20 10:11:43;;;;;;;11.95;6.50;;;;;;;33.41;29.82;100492.75;5089943;28;20234;-64
2022/07/20 10:14:13;;;;;;;11.98;6.03;;;;;;;33.49;29.36;100489.34;5088767;28;20269;-64
2022/07/20 10:16:49;;;;;;;14.05;6.07;;;;;;;33.54;29.43;100488.41;5090423;28;20203;-65
2022/07/20 10:19:17;;;;;;;22.70;6.35;;;;;;;33.62;29.14;100474.78;5083096;28;20242;-65
2022/07/20 10:21:47;;;;;;;11.35;6.25;;;;;;;33.71;29.17;100474.91;5081803;28;20791;-65
2022/07/20 10:24:19;;;;;;;10.27;6.15;;;;;;;33.81;29.64;100468.47;5089399;28;20211;-64
2022/07/20 10:26:49;;;;;;;11.20;6.28;;;;;;;33.89;29.54;100476.81;5090279;28;20246;-64
2022/07/20 10:29:29;;;;;;;9.10;6.20;;;;;;;33.93;29.04;100472.38;5069855;28;20896;-64
2022/07/20 10:32:00;;;;;;;8.68;5.75;;;;;;;33.92;29.04;100473.47;5068525;28;20200;-64
2022/07/20 10:34:36;;;;;;;13.38;6.60;;;;;;;34.15;29.40;100465.34;5064272;28;20210;-63
2022/07/20 10:37:27;;;;;;;9.07;5.68;;;;;;;34.12;28.47;100464.03;5069953;28;20702;-64
2022/07/20 10:40:08;;;;;;;13.68;6.05;;;;;;;34.24;28.75;100463.53;5069452;28;20203;-65
2022/07/20 10:42:38;;;;;;;14.50;6.13;;;;;;;34.37;28.78;100465.50;5069669;28;20575;-64
2022/07/20 10:45:35;;;;;;;11.95;6.13;;;;;;;34.34;28.27;100460.59;5070066;28;20318;-64
2022/07/20 10:48:19;;;;;;;13.82;5.95;;;;;;;34.38;28.28;100460.81;5069582;28;20290;-64
2022/07/20 10:50:50;;;;;;;16.30;7.00;;;;;;;34.58;28.37;100452.09;5070063;28;20219;-64
2022/07/20 10:53:34;;;;;;;16.13;6.10;;;;;;;34.58;28.55;100452.91;5069010;28;20210;-64
2022/07/20 10:56:09;;;;;;;11.50;6.93;;;;;;;34.57;28.23;100447.72;5069549;28;20207;-64
2022/07/20 10:58:39;;;;;;;16.30;6.75;;;;;;;34.55;28.01;100450.78;5069735;28;20203;-64
2022/07/20 11:01:10;;;;;;;10.80;7.07;;;;;;;34.58;27.63;100449.34;5069862;28;20266;-64
2022/07/20 11:03:40;;;;;;;17.17;6.88;;;;;;;34.77;27.71;100449.25;5069457;28;20211;-64
2022/07/20 11:06:12;;;;;;;10.30;7.18;;;;;;;34.92;27.85;100449.69;5070192;28;20223;-64
2022/07/20 11:08:43;;;;;;;12.48;6.70;;;;;;;35.06;28.17;100455.19;5069873;28;20349;-64
2022/07/20 11:11:16;;;;;;;13.38;7.40;;;;;;;35.12;28.28;100453.13;5061901;28;20237;-64
2022/07/20 11:13:46;;;;;;;18.52;5.75;;;;;;;35.15;28.43;100453.31;5068795;28;20295;-65
2022/07/20 11:16:18;;;;;;;13.00;6.38;;;;;;;35.32;28.00;100450.72;5064594;28;20221;-65
2022/07/20 11:18:47;;;;;;;12.20;6.10;;;;;;;35.38;27.86;100441.19;5053045;28;20215;-65
2022/07/20 11:21:16;;;;;;;16.02;6.03;;;;;;;35.47;27.83;100435.72;5048316;28;20429;-65
2022/07/20 11:23:46;;;;;;;13.95;7.10;;;;;;;35.57;27.68;100438.22;5056723;28;20213;-65
2022/07/20 11:26:15;;;;;;;14.77;6.32;;;;;;;35.63;27.83;100442.47;5065785;28;20660;-65
2022/07/20 11:28:48;;;;;;;10.30;6.85;;;;;;;35.69;27.22;100429.38;5069019;28;20823;-65
2022/07/20 11:31:18;;;;;;;15.30;6.75;;;;;;;35.71;27.31;100432.63;5070278;28;20203;-65
2022/07/20 11:33:48;;;;;;;12.63;7.35;;;;;;;35.61;27.38;100430.16;5066617;28;20322;-65
2022/07/20 11:36:18;;;;;;;11.38;7.43;;;;;;;35.68;27.31;100434.06;5073010;28;20393;-65
2022/07/20 11:38:48;;;;;;;11.93;7.25;;;;;;;35.75;27.43;100433.66;5072958;28;20243;-65